This is the latest recevied weather packets stored in our database for station/object KN6RO-14. If no packets are shown the sender has not sent any weather packets the latest 10 day(s).
| Time | Temp. | Humidity | Pressure | Rain* | Wind** | Luminosity | Snow |
|---|---|---|---|---|---|---|---|
| 1777496063 | 22.78° C | 77% | 1009.7 hPa | 0 mm | - | - | - |
| 1777494263 | 22.78° C | 75% | 1010.2 hPa | 0 mm | - | - | - |
| 1777492463 | 22.78° C | 77% | 1010.9 hPa | 0 mm | - | - | - |
| 1777490663 | 23.33° C | 75% | 1011.1 hPa | 0 mm | - | - | - |
| 1777488863 | 22.78° C | 78% | 1011.2 hPa | 0 mm | - | - | - |
| 1777487063 | 22.22° C | 79% | 1011.6 hPa | 0 mm | - | - | - |
| 1777485263 | 21.67° C | 81% | 1012.2 hPa | 0 mm | - | - | - |
| 1777483463 | 21.67° C | 80% | 1012.6 hPa | 0 mm | - | - | - |
| 1777481664 | 20° C | 84% | 1012.8 hPa | 0 mm | - | - | - |
| 1777479864 | 19.44° C | 87% | 1013.4 hPa | 0 mm | - | - | - |
| 1777478064 | 18.89° C | 87% | 1013.6 hPa | 0 mm | - | - | - |
| 1777476264 | 17.78° C | 92% | 1013.7 hPa | 0 mm | - | - | - |
| 1777474464 | 17.22° C | 93% | 1013.8 hPa | 0 mm | - | - | - |
| 1777472664 | 17.22° C | 94% | 1013.6 hPa | 0 mm | - | - | - |
| 1777470864 | 16.11° C | 96% | 1013.2 hPa | 0 mm | - | - | - |
| 1777469064 | 15.56° C | 97% | 1013.7 hPa | 0 mm | - | - | - |
| 1777467264 | 15° C | 97% | 1013.9 hPa | 0 mm | - | - | - |
| 1777465464 | 15° C | 97% | 1014 hPa | 0 mm | - | - | - |
| 1777463664 | 14.44° C | 96% | 1014.3 hPa | 0 mm | - | - | - |
| 1777461864 | 14.44° C | 96% | 1014.5 hPa | 0 mm | - | - | - |
| 1777460064 | 14.44° C | 96% | 1013 hPa | 0.51 mm | - | - | - |
| 1777458264 | 14.44° C | 95% | 1012.6 hPa | 1.52 mm | - | - | - |
| 1777456464 | 14.44° C | 96% | 1014.6 hPa | 2.54 mm | - | - | - |
| 1777454664 | 15° C | 96% | 1015.4 hPa | 3.56 mm | - | - | - |
| 1777452864 | 15° C | 96% | 1016 hPa | 4.06 mm | - | - | - |
* Rain latest hour (hover to see other rain measurements)
** Current wind speed in m/s (hover to see current wind gust speed)